Time;durP1;ratioP1;P1;durP2;ratioP2;P2;SDS_P1;SDS_P2;PMS_P1;PMS_P2;Temp;Humidity;BMP_temperature;BMP_pressure;BME280_temperature;BME280_humidity;BME280_pressure;Samples;Min_cycle;Max_cycle;Signal;HPM_P1;HPM_P2
2023/08/04 00:02:10;;;;;;;3.37;1.80;;;;;;;16.53;100.00;99689.97;5032495;28;20217;-85
2023/08/04 00:04:35;;;;;;;2.83;1.90;;;;;;;16.53;100.00;99687.19;5011367;28;20290;-82
2023/08/04 00:07:00;;;;;;;0.73;0.50;;;;;;;16.59;100.00;99691.22;5011726;28;20188;-84
2023/08/04 00:09:26;;;;;;;2.80;1.83;;;;;;;16.58;100.00;99705.38;5011006;28;20251;-83
2023/08/04 00:11:51;;;;;;;5.20;2.07;;;;;;;16.69;100.00;99698.13;5018844;28;20193;-85
2023/08/04 00:14:16;;;;;;;0.73;0.73;;;;;;;16.43;100.00;99696.09;5036390;28;20211;-84
2023/08/04 00:16:41;;;;;;;0.43;0.43;;;;;;;16.49;100.00;99704.84;5007694;28;20343;-83
2023/08/04 00:19:07;;;;;;;4.07;1.30;;;;;;;16.46;100.00;99706.38;5007146;28;20669;-85
2023/08/04 00:21:32;;;;;;;11.60;1.60;;;;;;;16.45;100.00;99709.50;5007968;28;20263;-83
2023/08/04 00:23:58;;;;;;;0.00;0.00;;;;;;;16.48;100.00;99715.06;5033650;28;20196;-84
2023/08/04 00:26:23;;;;;;;0.13;0.13;;;;;;;16.38;100.00;99712.94;5005512;28;20659;-84
2023/08/04 00:28:49;;;;;;;0.00;0.00;;;;;;;16.40;100.00;99718.09;5010625;28;20184;-84
2023/08/04 00:31:14;;;;;;;0.87;0.80;;;;;;;16.46;100.00;99720.16;5020572;28;20698;-82
2023/08/04 00:33:40;;;;;;;0.90;0.90;;;;;;;16.35;100.00;99719.22;5012867;28;20221;-83
2023/08/04 00:36:05;;;;;;;0.60;0.60;;;;;;;16.36;100.00;99731.81;5006005;28;20257;-84
2023/08/04 00:38:30;;;;;;;0.57;0.57;;;;;;;16.29;100.00;99723.41;5005966;28;20188;-83
2023/08/04 00:40:56;;;;;;;0.40;0.40;;;;;;;16.26;100.00;99730.47;5027297;28;20173;-83
2023/08/04 00:43:21;;;;;;;0.20;0.20;;;;;;;16.21;100.00;99729.97;5028006;28;20179;-83
2023/08/04 00:45:46;;;;;;;1.60;0.43;;;;;;;16.18;100.00;99741.72;5006238;28;20723;-86
2023/08/04 00:48:12;;;;;;;4.13;0.87;;;;;;;16.13;100.00;99734.56;5032297;28;20693;-82
2023/08/04 00:50:37;;;;;;;0.77;0.60;;;;;;;16.03;100.00;99737.91;5021533;28;20263;-84
2023/08/04 00:53:03;;;;;;;0.33;0.33;;;;;;;15.91;100.00;99730.63;5025420;28;20223;-84
2023/08/04 00:55:29;;;;;;;1.27;0.97;;;;;;;15.99;100.00;99743.34;5030618;28;20203;-83
2023/08/04 00:57:54;;;;;;;19.43;1.77;;;;;;;16.02;100.00;99750.88;5007009;28;20565;-84
2023/08/04 01:00:20;;;;;;;0.37;0.37;;;;;;;16.02;100.00;99744.56;5023501;28;20180;-84
2023/08/04 01:02:45;;;;;;;0.90;0.90;;;;;;;16.01;100.00;99743.78;5031454;28;20195;-83
2023/08/04 01:05:11;;;;;;;0.80;0.70;;;;;;;16.06;100.00;99748.22;5013839;28;20548;-84
2023/08/04 01:07:49;;;;;;;6.90;1.70;;;;;;;16.05;100.00;99743.84;5029857;28;20184;-81
2023/08/04 01:10:26;;;;;;;5.50;1.90;;;;;;;16.05;100.00;99758.41;5009834;28;20185;-85
2023/08/04 01:13:04;;;;;;;9.53;3.20;;;;;;;16.06;100.00;99756.47;5005879;28;20677;-83
2023/08/04 01:15:31;;;;;;;56.33;1.13;;;;;;;16.05;100.00;99752.09;5005956;28;20687;-82
2023/08/04 01:17:57;;;;;;;0.43;0.43;;;;;;;15.92;100.00;99753.44;5014020;28;20180;-83
2023/08/04 01:20:23;;;;;;;1.30;0.77;;;;;;;15.82;100.00;99754.03;5031848;28;20183;-83
2023/08/04 01:22:49;;;;;;;0.70;0.67;;;;;;;15.79;100.00;99761.06;5010212;28;20184;-83
2023/08/04 01:25:15;;;;;;;1.40;1.23;;;;;;;15.75;100.00;99773.94;5009537;28;20630;-82
2023/08/04 01:27:47;;;;;;;2.63;1.13;;;;;;;15.74;100.00;99778.66;5023464;28;20258;-83
2023/08/04 01:30:19;;;;;;;1.07;0.77;;;;;;;15.80;100.00;99789.41;5024815;28;20188;-82
2023/08/04 01:32:44;;;;;;;2.67;1.63;;;;;;;15.76;100.00;99783.81;5013117;28;20211;-82
2023/08/04 01:35:11;;;;;;;30.53;2.10;;;;;;;15.76;100.00;99783.81;5007477;28;20196;-81
2023/08/04 01:37:36;;;;;;;1.27;1.23;;;;;;;15.79;100.00;99790.56;4996498;28;20181;-83
2023/08/04 01:40:02;;;;;;;0.60;0.60;;;;;;;15.74;100.00;99788.88;5035243;28;20187;-83
2023/08/04 01:42:27;;;;;;;0.60;0.60;;;;;;;15.70;100.00;99796.28;5016187;28;20202;-83
2023/08/04 01:44:53;;;;;;;0.30;0.30;;;;;;;15.87;100.00;99812.38;5010185;28;20200;-84
2023/08/04 01:47:18;;;;;;;0.40;0.40;;;;;;;15.84;100.00;99804.03;5035090;28;20179;-83
2023/08/04 01:49:46;;;;;;;1.53;1.43;;;;;;;15.72;100.00;99802.22;5009088;28;20211;-84
2023/08/04 01:52:11;;;;;;;2.20;1.50;;;;;;;15.79;100.00;99810.66;5023523;28;20207;-83
2023/08/04 01:54:37;;;;;;;0.47;0.47;;;;;;;15.81;100.00;99808.31;5016813;28;20311;-83
2023/08/04 01:57:02;;;;;;;2.63;2.43;;;;;;;15.84;100.00;99815.88;5026628;28;20203;-84
2023/08/04 01:59:27;;;;;;;5.40;1.00;;;;;;;15.86;100.00;99812.75;5017286;28;20262;-82
2023/08/04 02:01:53;;;;;;;1.17;1.13;;;;;;;15.81;100.00;99810.28;5016866;28;20183;-83
2023/08/04 02:04:18;;;;;;;3.93;0.87;;;;;;;15.81;100.00;99813.84;5008890;28;20253;-83
2023/08/04 02:06:43;;;;;;;1.93;1.63;;;;;;;15.74;100.00;99816.44;5034690;28;20183;-84
2023/08/04 02:09:09;;;;;;;8.87;2.03;;;;;;;15.73;100.00;99825.84;5008690;28;20200;-83
2023/08/04 02:11:34;;;;;;;2.03;0.60;;;;;;;15.79;100.00;99815.38;5007149;28;20192;-83
2023/08/04 02:14:00;;;;;;;0.97;0.97;;;;;;;15.72;100.00;99827.00;5027869;28;20208;-84
2023/08/04 02:16:25;;;;;;;10.33;1.97;;;;;;;15.63;100.00;99824.47;5018401;28;20176;-83
2023/08/04 02:18:50;;;;;;;5.83;2.27;;;;;;;15.70;100.00;99827.38;5008835;28;20198;-81
2023/08/04 02:21:16;;;;;;;6.50;2.23;;;;;;;15.70;100.00;99832.09;5009468;28;20185;-84
2023/08/04 02:23:41;;;;;;;1.00;1.00;;;;;;;15.64;100.00;99831.59;5007544;28;20205;-84
2023/08/04 02:26:06;;;;;;;2.10;2.00;;;;;;;15.56;100.00;99834.50;5008637;28;20188;-83
2023/08/04 02:28:31;;;;;;;1.47;1.33;;;;;;;15.61;100.00;99834.25;5034243;28;20214;-84
2023/08/04 02:30:58;;;;;;;0.27;0.27;;;;;;;15.59;100.00;99842.03;5034434;28;20251;-84
2023/08/04 02:33:24;;;;;;;1.47;1.20;;;;;;;15.65;100.00;99851.66;5025638;28;20688;-85
2023/08/04 02:35:49;;;;;;;1.40;1.40;;;;;;;15.57;100.00;99847.09;5013197;28;20208;-84
2023/08/04 02:38:14;;;;;;;1.73;1.63;;;;;;;15.51;100.00;99846.59;5029853;28;20187;-83
2023/08/04 02:40:40;;;;;;;0.30;0.30;;;;;;;15.61;100.00;99854.31;5027029;28;20234;-84
2023/08/04 02:43:05;;;;;;;1.00;1.00;;;;;;;15.57;100.00;99842.41;5027880;28;20556;-83
2023/08/04 02:45:30;;;;;;;2.70;1.87;;;;;;;15.48;100.00;99841.81;5030571;28;20274;-82
2023/08/04 02:47:56;;;;;;;1.37;1.37;;;;;;;15.52;100.00;99845.44;5009395;28;20649;-83
2023/08/04 02:50:21;;;;;;;0.47;0.47;;;;;;;15.50;100.00;99850.50;5025256;28;20196;-83
2023/08/04 02:52:46;;;;;;;1.00;1.00;;;;;;;15.52;100.00;99847.41;5022559;28;20293;-83
2023/08/04 02:55:12;;;;;;;1.43;1.27;;;;;;;15.52;100.00;99850.16;5022593;28;20205;-83
2023/08/04 02:57:38;;;;;;;1.47;1.30;;;;;;;15.46;100.00;99855.91;5030597;28;20194;-84
2023/08/04 03:00:04;;;;;;;2.53;1.60;;;;;;;15.52;100.00;99856.44;5028192;28;20198;-84
2023/08/04 03:02:29;;;;;;;3.03;0.97;;;;;;;15.51;100.00;99859.56;5015925;28;20188;-83
2023/08/04 03:04:55;;;;;;;3.70;0.80;;;;;;;15.54;100.00;99853.34;5021039;28;20207;-84
2023/08/04 03:07:20;;;;;;;1.20;1.10;;;;;;;15.55;100.00;99866.75;5030035;28;20219;-83
2023/08/04 03:09:45;;;;;;;3.03;1.37;;;;;;;15.55;100.00;99868.69;5015875;28;20183;-82
2023/08/04 03:12:11;;;;;;;0.77;0.77;;;;;;;15.48;100.00;99870.16;5008836;28;20231;-84
2023/08/04 03:14:36;;;;;;;9.73;1.90;;;;;;;15.51;100.00;99874.13;5029670;28;20269;-83
2023/08/04 03:17:01;;;;;;;2.90;1.27;;;;;;;15.48;100.00;99872.09;5021952;28;20199;-82
2023/08/04 03:19:26;;;;;;;1.70;1.60;;;;;;;15.44;100.00;99874.75;5022008;28;20184;-83
2023/08/04 03:21:52;;;;;;;4.47;1.77;;;;;;;15.43;100.00;99884.16;5024823;28;20633;-84
2023/08/04 03:24:17;;;;;;;2.47;2.37;;;;;;;15.42;100.00;99881.78;5025068;28;20200;-84
2023/08/04 03:26:42;;;;;;;1.83;1.73;;;;;;;15.36;100.00;99888.72;5025182;28;20187;-83
2023/08/04 03:29:08;;;;;;;0.93;0.93;;;;;;;15.34;100.00;99894.59;5016173;28;20184;-83
2023/08/04 03:31:33;;;;;;;4.73;1.00;;;;;;;15.40;100.00;99897.84;5007460;28;20183;-83
2023/08/04 03:33:58;;;;;;;0.10;0.10;;;;;;;15.40;100.00;99897.84;5007090;28;20243;-83
2023/08/04 03:36:24;;;;;;;2.90;1.23;;;;;;;15.39;100.00;99899.81;5007470;28;20194;-84
2023/08/04 03:38:49;;;;;;;0.57;0.57;;;;;;;15.46;100.00;99899.97;5021857;28;20593;-83
2023/08/04 03:41:14;;;;;;;0.20;0.20;;;;;;;15.47;100.00;99909.81;4995615;28;20196;-83
2023/08/04 03:43:39;;;;;;;0.73;0.70;;;;;;;15.50;100.00;99905.56;5029540;28;20202;-83
2023/08/04 03:46:05;;;;;;;0.27;0.27;;;;;;;15.62;100.00;99922.03;5027600;28;20186;-84
2023/08/04 03:48:30;;;;;;;0.43;0.43;;;;;;;15.58;100.00;99906.53;5032045;28;20595;-83
2023/08/04 03:50:55;;;;;;;0.60;0.60;;;;;;;15.57;100.00;99908.47;5026258;28;20263;-83
2023/08/04 03:53:20;;;;;;;0.37;0.37;;;;;;;15.62;100.00;99908.25;5024776;28;20200;-84
2023/08/04 03:55:46;;;;;;;0.20;0.20;;;;;;;15.60;100.00;99921.56;5007082;28;20191;-84
2023/08/04 03:58:11;;;;;;;0.50;0.30;;;;;;;15.51;100.00;99917.38;5008871;28;20670;-83
2023/08/04 04:00:36;;;;;;;0.07;0.07;;;;;;;15.52;100.00;99927.25;5012138;28;20237;-84
2023/08/04 04:03:01;;;;;;;0.83;0.83;;;;;;;15.48;100.00;99925.22;5018464;28;20669;-83
2023/08/04 04:05:27;;;;;;;0.60;0.60;;;;;;;15.43;100.00;99925.47;5015581;28;20201;-83
2023/08/04 04:07:52;;;;;;;7.10;2.00;;;;;;;15.36;100.00;99932.75;5017240;28;20184;-83
2023/08/04 04:10:17;;;;;;;1.17;1.07;;;;;;;15.38;100.00;99938.72;5006705;28;20183;-83
2023/08/04 04:12:43;;;;;;;1.00;1.00;;;;;;;15.35;100.00;99945.72;5023952;28;20547;-84
2023/08/04 04:15:08;;;;;;;3.20;2.60;;;;;;;15.37;100.00;99940.66;5006665;28;20260;-81
2023/08/04 04:17:35;;;;;;;3.40;1.17;;;;;;;15.47;100.00;99945.59;5014486;28;20183;-82
2023/08/04 04:20:00;;;;;;;4.27;0.70;;;;;;;15.41;100.00;99943.50;5027637;28;20184;-83
2023/08/04 04:22:26;;;;;;;1.80;1.70;;;;;;;15.40;100.00;99942.69;5021059;28;20179;-82
2023/08/04 04:24:51;;;;;;;0.30;0.30;;;;;;;15.41;100.00;99943.50;5010819;28;20200;-83
2023/08/04 04:27:16;;;;;;;7.27;1.63;;;;;;;15.41;100.00;99947.03;5003386;28;20191;-83
2023/08/04 04:29:41;;;;;;;1.20;1.13;;;;;;;15.55;100.00;99952.09;5023202;28;20198;-84
2023/08/04 04:32:07;;;;;;;2.40;2.20;;;;;;;15.50;100.00;99935.88;5006161;28;20217;-83
2023/08/04 04:34:33;;;;;;;3.93;1.00;;;;;;;15.41;100.00;99938.78;5015690;28;20212;-84
2023/08/04 04:36:58;;;;;;;0.93;0.83;;;;;;;15.41;100.00;99943.50;5027424;28;20263;-84
2023/08/04 04:39:25;;;;;;;0.57;0.57;;;;;;;15.53;100.00;99950.88;5020692;28;20651;-82
2023/08/04 04:41:50;;;;;;;1.70;1.60;;;;;;;15.47;100.00;99956.63;5013963;28;20183;-83
2023/08/04 04:44:15;;;;;;;1.63;1.47;;;;;;;15.45;100.00;99956.19;5031894;28;20210;-83
2023/08/04 04:46:41;;;;;;;3.97;1.47;;;;;;;15.52;100.00;99963.84;5006135;28;20611;-83
2023/08/04 04:49:06;;;;;;;0.40;0.40;;;;;;;15.47;100.00;99959.38;5024032;28;20183;-83
2023/08/04 04:51:31;;;;;;;1.00;0.97;;;;;;;15.47;100.00;99955.81;5006137;28;20190;-83
2023/08/04 04:53:56;;;;;;;1.07;1.07;;;;;;;15.41;100.00;99965.53;5009265;28;20219;-84
2023/08/04 04:56:22;;;;;;;0.20;0.20;;;;;;;15.42;100.00;99964.38;5028419;28;20206;-83
2023/08/04 04:58:47;;;;;;;2.10;1.93;;;;;;;15.42;100.00;99964.38;5002525;28;20196;-83
2023/08/04 05:01:12;;;;;;;4.67;3.23;;;;;;;15.42;100.00;99961.59;5018911;28;20184;-83
2023/08/04 05:03:38;;;;;;;1.83;1.73;;;;;;;15.49;100.00;99967.31;4995549;28;20204;-83
2023/08/04 05:06:03;;;;;;;3.27;1.77;;;;;;;15.58;100.00;99969.84;5020262;28;20663;-84
2023/08/04 05:08:28;;;;;;;4.20;1.60;;;;;;;15.61;100.00;99977.44;5002539;28;20183;-83
2023/08/04 05:10:54;;;;;;;1.67;1.57;;;;;;;15.61;100.00;99971.91;5010667;28;20556;-84
2023/08/04 05:13:19;;;;;;;1.10;1.10;;;;;;;15.61;100.00;99969.16;5012229;28;20200;-83
2023/08/04 05:15:48;;;;;;;1.13;1.03;;;;;;;15.66;100.00;99979.94;5009101;28;20274;-83
2023/08/04 05:18:15;;;;;;;1.00;0.93;;;;;;;15.66;100.00;99983.47;5011046;28;20263;-83
2023/08/04 05:20:44;;;;;;;0.47;0.47;;;;;;;15.80;100.00;99982.22;5026341;28;20191;-84
2023/08/04 05:23:09;;;;;;;0.70;0.70;;;;;;;15.87;100.00;99985.94;5026898;28;20276;-84
2023/08/04 05:25:34;;;;;;;1.30;1.20;;;;;;;15.80;100.00;99974.75;5025303;28;20758;-84
2023/08/04 05:28:19;;;;;;;7.70;1.40;;;;;;;15.80;100.00;99977.53;5014156;28;20176;-83
2023/08/04 05:30:45;;;;;;;0.00;0.00;;;;;;;15.89;100.00;99985.56;5031843;28;20654;-82
2023/08/04 05:33:10;;;;;;;4.67;2.40;;;;;;;15.81;100.00;99987.38;5000892;28;20204;-83
2023/08/04 05:35:37;;;;;;;2.17;1.97;;;;;;;15.77;100.00;99983.75;5013989;28;20204;-83
2023/08/04 05:38:03;;;;;;;1.60;1.43;;;;;;;15.83;100.00;99996.09;5011162;28;20211;-83
2023/08/04 05:40:28;;;;;;;4.50;1.73;;;;;;;15.79;100.00;99986.94;5006588;28;20211;-83
2023/08/04 05:42:53;;;;;;;9.83;2.17;;;;;;;15.73;100.00;99993.88;5030687;28;20188;-83
2023/08/04 05:45:19;;;;;;;1.67;1.57;;;;;;;15.76;100.00;99993.13;5001462;28;20200;-83
2023/08/04 05:47:44;;;;;;;4.70;1.17;;;;;;;15.86;100.00;99997.31;5016762;28;20342;-83
2023/08/04 05:50:10;;;;;;;1.13;1.13;;;;;;;15.95;100.00;99998.72;5035192;28;20610;-83
2023/08/04 05:52:35;;;;;;;5.13;1.70;;;;;;;15.78;100.00;99993.59;5009213;28;20176;-83
2023/08/04 05:55:01;;;;;;;6.07;1.03;;;;;;;15.89;100.00;99996.59;5022726;28;20230;-84
2023/08/04 05:57:26;;;;;;;1.70;1.60;;;;;;;15.90;100.00;100012.75;5008974;28;20665;-82
2023/08/04 05:59:51;;;;;;;2.87;1.73;;;;;;;15.93;100.00;100008.53;5034762;28;20176;-84
2023/08/04 06:02:17;;;;;;;8.33;1.50;;;;;;;16.01;100.00;100005.56;5026208;28;20187;-85
2023/08/04 06:04:42;;;;;;;0.53;0.53;;;;;;;16.09;100.00;100014.00;5001219;28;21848;-83
2023/08/04 06:07:08;;;;;;;1.00;0.87;;;;;;;16.17;100.00;100007.47;5009016;28;20191;-84
2023/08/04 06:09:33;;;;;;;1.43;1.17;;;;;;;16.14;100.00;100014.50;5007424;28;20561;-84
2023/08/04 06:11:58;;;;;;;1.53;1.53;;;;;;;16.19;100.00;100014.22;5023719;28;20183;-83
2023/08/04 06:14:23;;;;;;;2.57;1.63;;;;;;;16.13;100.00;100017.63;5016513;28;20211;-83
2023/08/04 06:16:49;;;;;;;0.17;0.10;;;;;;;16.08;100.00;100004.13;5005478;28;20242;-83
2023/08/04 06:19:14;;;;;;;2.03;1.93;;;;;;;16.06;100.00;100013.56;5005513;28;20184;-83
2023/08/04 06:21:39;;;;;;;0.63;0.63;;;;;;;16.07;100.00;100008.84;5033016;28;20184;-83
2023/08/04 06:24:05;;;;;;;13.33;1.93;;;;;;;16.12;100.00;100021.53;5025253;28;20388;-84
2023/08/04 06:26:30;;;;;;;1.30;1.20;;;;;;;16.15;100.00;100016.09;5016740;28;20693;-83
2023/08/04 06:28:55;;;;;;;0.57;0.57;;;;;;;16.21;100.00;100013.88;5009464;28;20190;-83
2023/08/04 06:31:21;;;;;;;0.90;0.90;;;;;;;16.17;100.00;100010.22;5025877;28;20184;-84
2023/08/04 06:33:46;;;;;;;0.00;0.00;;;;;;;16.29;100.00;100010.13;5004863;28;20231;-83
2023/08/04 06:36:11;;;;;;;0.70;0.67;;;;;;;16.44;100.00;100013.97;5022644;28;20204;-84
2023/08/04 06:38:37;;;;;;;0.57;0.23;;;;;;;16.50;100.00;100021.63;5015013;28;20200;-83
2023/08/04 06:41:02;;;;;;;1.20;0.70;;;;;;;16.50;100.00;100018.88;5008465;28;20191;-82
2023/08/04 06:43:27;;;;;;;0.40;0.40;;;;;;;16.60;100.00;100025.75;5017435;28;20176;-84
2023/08/04 06:45:52;;;;;;;0.77;0.77;;;;;;;16.56;100.00;100025.69;5025908;28;20176;-82
2023/08/04 06:48:18;;;;;;;0.37;0.37;;;;;;;16.72;100.00;100030.34;5016256;28;20179;-82
2023/08/04 06:50:43;;;;;;;0.93;0.83;;;;;;;16.78;100.00;100028.91;5008171;28;20240;-84
2023/08/04 06:53:09;;;;;;;1.10;0.97;;;;;;;16.70;100.00;100013.38;5009555;28;20698;-83
2023/08/04 06:55:35;;;;;;;2.40;1.97;;;;;;;16.71;100.00;100029.56;5031679;28;20207;-83
2023/08/04 06:58:00;;;;;;;0.57;0.57;;;;;;;16.78;100.00;100026.97;5028748;28;20180;-84
2023/08/04 07:00:25;;;;;;;4.00;1.40;;;;;;;16.86;100.00;100027.91;5021997;28;20701;-83
2023/08/04 07:02:50;;;;;;;3.40;1.30;;;;;;;16.85;100.00;100029.84;5008115;28;20216;-82
2023/08/04 07:05:16;;;;;;;0.67;0.67;;;;;;;16.90;100.00;100039.78;5025646;28;20559;-84
2023/08/04 07:07:42;;;;;;;5.60;1.13;;;;;;;16.87;100.00;100041.31;5015660;28;20180;-83
2023/08/04 07:10:07;;;;;;;1.37;1.27;;;;;;;16.95;100.00;100036.75;5009838;28;20184;-85
2023/08/04 07:12:33;;;;;;;1.23;1.13;;;;;;;16.97;100.00;100045.47;5012165;28;20180;-84
2023/08/04 07:14:58;;;;;;;0.33;0.00;;;;;;;16.99;100.00;100048.66;5021950;28;20223;-82
2023/08/04 07:17:24;;;;;;;3.87;1.23;;;;;;;16.92;100.00;100042.97;5011975;28;20186;-84
2023/08/04 07:19:49;;;;;;;0.90;0.90;;;;;;;16.87;100.00;100051.56;5022201;28;20187;-83
2023/08/04 07:22:14;;;;;;;1.20;1.20;;;;;;;16.90;100.00;100053.59;5010868;28;20196;-83
2023/08/04 07:24:40;;;;;;;0.23;0.23;;;;;;;16.86;100.00;100064.56;5024961;28;20614;-85
2023/08/04 07:27:05;;;;;;;0.30;0.30;;;;;;;16.94;100.00;100054.47;5033391;28;20187;-84
2023/08/04 07:29:33;;;;;;;8.50;1.47;;;;;;;17.03;100.00;100071.59;5007336;28;20184;-84
2023/08/04 07:31:58;;;;;;;0.53;0.53;;;;;;;17.01;100.00;100073.13;5002224;28;20275;-84
2023/08/04 07:34:23;;;;;;;0.30;0.23;;;;;;;17.17;100.00;100076.59;5003722;28;20298;-84
2023/08/04 07:36:49;;;;;;;0.60;0.60;;;;;;;17.12;100.00;100071.38;5024631;28;20211;-84
2023/08/04 07:39:14;;;;;;;1.50;1.30;;;;;;;17.17;100.00;100071.88;5000728;28;20545;-84
2023/08/04 07:41:40;;;;;;;12.13;0.57;;;;;;;17.02;100.00;100071.97;5023835;28;20185;-83
2023/08/04 07:44:05;;;;;;;1.07;1.03;;;;;;;17.04;100.00;100075.16;5032656;28;20203;-83
2023/08/04 07:46:30;;;;;;;1.67;1.57;;;;;;;17.08;100.00;100073.28;5007371;28;20223;-83
2023/08/04 07:48:56;;;;;;;2.23;1.10;;;;;;;17.22;100.00;100082.66;5020725;28;20276;-83
2023/08/04 07:51:22;;;;;;;0.40;0.40;;;;;;;17.29;100.00;100075.66;5029406;28;20192;-84
2023/08/04 07:53:47;;;;;;;5.33;1.23;;;;;;;17.34;99.80;100080.88;5007061;28;20220;-85
2023/08/04 07:56:13;;;;;;;0.67;0.67;;;;;;;17.37;98.89;100074.63;5001595;28;20184;-84
2023/08/04 07:58:38;;;;;;;0.57;0.50;;;;;;;17.47;98.84;100079.53;5023626;28;20172;-85
2023/08/04 08:01:04;;;;;;;14.83;1.80;;;;;;;17.43;98.85;100086.97;5010216;28;20188;-84
2023/08/04 08:03:33;;;;;;;0.13;0.13;;;;;;;17.58;99.06;100091.59;5007378;28;20262;-84
2023/08/04 08:05:59;;;;;;;0.70;0.70;;;;;;;17.59;98.05;100089.63;5011992;28;20275;-84
2023/08/04 08:08:26;;;;;;;1.20;1.17;;;;;;;17.45;96.89;100082.66;5024509;28;20180;-84
2023/08/04 08:10:51;;;;;;;0.20;0.10;;;;;;;17.52;97.22;100084.78;5027365;28;20175;-83
2023/08/04 08:13:17;;;;;;;3.93;0.97;;;;;;;17.56;97.16;100091.16;5008707;28;20206;-84
2023/08/04 08:15:42;;;;;;;3.60;1.73;;;;;;;17.55;96.24;100089.56;5014847;28;20196;-82
2023/08/04 08:18:08;;;;;;;0.53;0.53;;;;;;;17.64;95.17;100101.16;5034614;28;20248;-85
2023/08/04 08:20:33;;;;;;;0.57;0.57;;;;;;;17.72;94.60;100099.38;5027940;28;20187;-84
2023/08/04 08:22:58;;;;;;;0.07;0.03;;;;;;;17.85;94.07;100106.31;5023355;28;20639;-84
2023/08/04 08:25:24;;;;;;;0.00;0.00;;;;;;;18.03;94.54;100101.88;5013462;28;20218;-84
2023/08/04 08:27:49;;;;;;;0.17;0.17;;;;;;;18.17;94.33;100108.81;5013866;28;20176;-83
2023/08/04 08:30:15;;;;;;;1.60;1.30;;;;;;;18.24;93.41;100106.97;5010695;28;20187;-84
2023/08/04 08:32:40;;;;;;;1.17;0.63;;;;;;;18.20;91.83;100106.09;5024135;28;20645;-84
2023/08/04 08:35:06;;;;;;;2.67;1.40;;;;;;;18.07;90.03;100090.88;5032609;28;20199;-84
2023/08/04 08:37:31;;;;;;;0.40;0.40;;;;;;;18.20;90.72;100106.09;5024324;28;20532;-84
2023/08/04 08:39:56;;;;;;;0.30;0.30;;;;;;;18.32;90.47;100100.34;5010231;28;20184;-84
2023/08/04 08:42:22;;;;;;;0.40;0.27;;;;;;;18.22;88.55;100105.72;5028468;28;20211;-84
2023/08/04 08:44:48;;;;;;;1.63;0.70;;;;;;;18.34;89.45;100111.03;5024111;28;20188;-83
2023/08/04 08:47:14;;;;;;;0.20;0.17;;;;;;;18.26;87.86;100107.38;5032800;28;20198;-83
2023/08/04 08:49:45;;;;;;;0.53;0.53;;;;;;;18.33;88.00;100117.75;5012542;28;20191;-85
2023/08/04 08:52:10;;;;;;;0.30;0.30;;;;;;;18.35;87.96;100115.41;5027773;28;20176;-85
2023/08/04 08:54:36;;;;;;;1.80;0.87;;;;;;;18.48;88.06;100121.53;5024877;28;20629;-85
2023/08/04 08:57:02;;;;;;;0.00;0.00;;;;;;;18.52;86.83;100116.88;5025820;28;20183;-85
2023/08/04 08:59:28;;;;;;;0.53;0.53;;;;;;;18.64;86.70;100125.75;5025280;28;20557;-84
2023/08/04 09:01:54;;;;;;;0.40;0.40;;;;;;;18.45;85.46;100112.00;5016448;28;20180;-84
2023/08/04 09:04:20;;;;;;;0.30;0.30;;;;;;;18.50;85.60;100117.22;4998248;28;20203;-84
2023/08/04 09:06:45;;;;;;;1.33;0.70;;;;;;;18.57;84.70;100122.06;5035441;28;20187;-84
2023/08/04 09:09:11;;;;;;;0.30;0.30;;;;;;;18.61;83.61;100120.94;5018255;28;20198;-84
2023/08/04 09:11:36;;;;;;;0.40;0.40;;;;;;;18.63;82.06;100123.34;5035695;28;20269;-84
2023/08/04 09:14:02;;;;;;;0.33;0.33;;;;;;;18.69;82.09;100122.69;5024466;28;20215;-84
2023/08/04 09:16:32;;;;;;;0.70;0.70;;;;;;;18.82;81.21;100123.25;5048866;28;20184;-84
2023/08/04 09:19:05;;;;;;;0.10;0.10;;;;;;;18.83;79.10;100119.31;5040107;28;20717;-84
2023/08/04 09:21:31;;;;;;;0.07;0.07;;;;;;;18.95;80.69;100127.38;5018142;28;20185;-83
2023/08/04 09:23:56;;;;;;;0.20;0.10;;;;;;;19.12;81.01;100133.53;5018247;28;20210;-84
2023/08/04 09:26:22;;;;;;;0.00;0.00;;;;;;;19.09;80.63;100129.50;5036136;28;20720;-84
2023/08/04 09:29:05;;;;;;;0.00;0.00;;;;;;;19.13;79.72;100127.59;5027406;28;20263;-83
2023/08/04 09:31:41;;;;;;;0.10;0.10;;;;;;;19.11;80.53;100132.72;5017856;28;20183;-83
2023/08/04 09:34:08;;;;;;;1.40;1.30;;;;;;;19.19;82.11;100134.41;5017351;28;20219;-85
2023/08/04 09:36:44;;;;;;;0.33;0.33;;;;;;;19.20;80.34;100122.16;5034038;28;20188;-84
2023/08/04 09:39:10;;;;;;;0.20;0.20;;;;;;;19.31;79.50;100128.63;5014586;28;20199;-85
2023/08/04 09:41:40;;;;;;;0.40;0.40;;;;;;;19.43;78.04;100127.56;5008954;28;20622;-84
2023/08/04 09:44:06;;;;;;;5.40;0.73;;;;;;;19.29;77.68;100124.63;5026947;28;20206;-84
2023/08/04 09:46:38;;;;;;;0.40;0.40;;;;;;;19.34;78.10;100124.28;5011288;28;20267;-84
2023/08/04 09:49:04;;;;;;;0.00;0.00;;;;;;;19.09;76.10;100109.34;5017906;28;20547;-85
2023/08/04 09:51:29;;;;;;;11.03;0.43;;;;;;;19.07;77.14;100118.03;5027076;28;20191;-84
2023/08/04 09:53:54;;;;;;;0.17;0.17;;;;;;;19.08;78.95;100116.06;5008963;28;20298;-84
2023/08/04 09:56:23;;;;;;;0.53;0.43;;;;;;;18.89;79.48;100109.50;5001630;28;20208;-84
2023/08/04 09:58:49;;;;;;;0.10;0.10;;;;;;;18.76;80.86;100113.66;5018925;28;20203;-84
2023/08/04 10:01:16;;;;;;;1.07;0.70;;;;;;;18.69;81.57;100117.16;5010292;28;20595;-84
2023/08/04 10:03:43;;;;;;;0.57;0.57;;;;;;;18.83;82.25;100122.09;5025557;28;20200;-83
2023/08/04 10:06:12;;;;;;;0.30;0.30;;;;;;;18.75;81.44;100125.13;5008910;28;20214;-84
2023/08/04 10:08:40;;;;;;;0.10;0.10;;;;;;;18.80;81.83;100124.78;5034758;28;20193;-84
2023/08/04 10:11:07;;;;;;;4.13;0.50;;;;;;;18.86;81.16;100124.09;5034503;28;20237;-84
2023/08/04 10:13:34;;;;;;;0.00;0.00;;;;;;;18.96;81.09;100128.97;5016308;28;20200;-84
2023/08/04 10:16:03;;;;;;;0.53;0.43;;;;;;;19.05;81.40;100134.22;5034528;28;20184;-84
2023/08/04 10:18:44;;;;;;;0.27;0.27;;;;;;;19.06;81.28;100126.72;5026388;28;20266;-84
2023/08/04 10:21:10;;;;;;;0.20;0.20;;;;;;;18.90;81.02;100124.13;5027924;28;20184;-83
2023/08/04 10:23:35;;;;;;;0.10;0.10;;;;;;;18.90;81.53;100115.81;5012817;28;20266;-83
2023/08/04 10:26:03;;;;;;;0.97;0.87;;;;;;;18.88;81.39;100126.47;5019754;28;20662;-83
2023/08/04 10:28:32;;;;;;;0.63;0.63;;;;;;;18.82;81.05;100120.50;5004029;28;20180;-84
2023/08/04 10:31:10;;;;;;;0.60;0.60;;;;;;;18.82;81.42;100120.50;5001466;28;20175;-84
2023/08/04 10:33:36;;;;;;;0.20;0.20;;;;;;;18.88;81.43;100120.94;5024958;28;20207;-84
2023/08/04 10:36:09;;;;;;;0.40;0.40;;;;;;;18.94;80.41;100131.31;5034085;28;20191;-83
2023/08/04 10:38:49;;;;;;;0.43;0.20;;;;;;;19.00;80.55;100134.56;5023842;28;20184;-84
2023/08/04 10:41:15;;;;;;;0.40;0.40;;;;;;;19.20;80.36;100141.53;5014341;28;20191;-84
2023/08/04 10:43:57;;;;;;;0.13;0.13;;;;;;;19.39;79.24;100134.25;5016252;28;20204;-84
2023/08/04 10:46:24;;;;;;;5.13;0.50;;;;;;;19.66;79.24;100146.84;5033935;28;20172;-83
2023/08/04 10:48:49;;;;;;;0.23;0.23;;;;;;;19.56;77.23;100134.47;5017147;28;20175;-83
2023/08/04 10:51:14;;;;;;;0.70;0.57;;;;;;;19.45;77.94;100133.53;5021739;28;20237;-82
2023/08/04 10:53:40;;;;;;;0.70;0.53;;;;;;;19.16;78.99;100134.38;5005647;28;20212;-83
2023/08/04 10:56:07;;;;;;;8.60;0.60;;;;;;;18.94;79.60;100134.06;4997181;28;20173;-83
2023/08/04 10:58:32;;;;;;;41.23;3.47;;;;;;;19.02;79.51;100146.06;5012532;28;20262;-85
2023/08/04 11:00:57;;;;;;;0.40;0.33;;;;;;;19.03;78.53;100139.34;4996543;28;20326;-84
2023/08/04 11:03:25;;;;;;;0.30;0.30;;;;;;;19.01;78.38;100141.69;5013656;28;20177;-83
2023/08/04 11:05:52;;;;;;;0.10;0.10;;;;;;;19.09;78.46;100140.59;4992286;28;20190;-83
2023/08/04 11:08:22;;;;;;;0.73;0.57;;;;;;;19.12;78.68;100150.94;5017939;28;20176;-84
2023/08/04 11:10:49;;;;;;;0.57;0.57;;;;;;;19.31;79.25;100159.09;5028946;28;20327;-84
2023/08/04 11:13:19;;;;;;;0.10;0.10;;;;;;;19.44;79.35;100150.53;5026008;28;20234;-84
2023/08/04 11:15:46;;;;;;;6.33;1.67;;;;;;;19.36;79.93;100154.38;5003875;28;20206;-85
2023/08/04 11:18:13;;;;;;;0.50;0.50;;;;;;;19.25;79.21;100140.41;5009029;28;20180;-85
2023/08/04 11:20:40;;;;;;;3.33;1.00;;;;;;;19.59;80.35;100155.88;5014089;28;20181;-85